Time;durP1;ratioP1;P1;durP2;ratioP2;P2;SDS_P1;SDS_P2;PMS_P1;PMS_P2;Temp;Humidity;BMP_temperature;BMP_pressure;BME280_temperature;BME280_humidity;BME280_pressure;Samples;Min_cycle;Max_cycle;Signal;HPM_P1;HPM_P2
2023/09/18 00:00:46;;;;;;;16.45;14.50;;;;;;;;;;5058990;28;20035;-76
2023/09/18 00:03:11;;;;;;;16.23;14.73;;;;;;;;;;5061577;28;20393;-77
2023/09/18 00:05:37;;;;;;;16.48;14.90;;;;;;;;;;5052014;28;20028;-76
2023/09/18 00:08:02;;;;;;;15.88;14.27;;;;;;;;;;5062328;28;20444;-75
2023/09/18 00:10:28;;;;;;;16.38;14.50;;;;;;;;;;5062712;28;20417;-77
2023/09/18 00:12:54;;;;;;;15.75;13.73;;;;;;;;;;5064138;28;20029;-76
2023/09/18 00:15:19;;;;;;;16.80;15.18;;;;;;;;;;5066009;28;20024;-75
2023/09/18 00:17:45;;;;;;;15.95;14.40;;;;;;;;;;5065567;28;20040;-76
2023/09/18 00:20:11;;;;;;;18.00;14.18;;;;;;;;;;5052581;28;20017;-76
2023/09/18 00:22:37;;;;;;;17.08;15.27;;;;;;;;;;5065340;28;20348;-77
2023/09/18 00:25:02;;;;;;;16.60;14.90;;;;;;;;;;5065335;28;20024;-78
2023/09/18 00:27:28;;;;;;;16.67;15.07;;;;;;;;;;5066261;28;20106;-76
2023/09/18 00:29:53;;;;;;;19.08;15.00;;;;;;;;;;5053031;28;20028;-74
2023/09/18 00:32:19;;;;;;;18.05;14.27;;;;;;;;;;5065733;28;20455;-76
2023/09/18 00:34:44;;;;;;;15.65;13.98;;;;;;;;;;5057652;28;21688;-76
2023/09/18 00:37:12;;;;;;;15.77;14.18;;;;;;;;;;5057336;28;20036;-75
2023/09/18 00:39:37;;;;;;;14.30;12.85;;;;;;;;;;5064855;28;20027;-77
2023/09/18 00:42:02;;;;;;;15.90;13.93;;;;;;;;;;5064910;28;20048;-76
2023/09/18 00:44:28;;;;;;;17.58;14.80;;;;;;;;;;5065347;28;20425;-75
2023/09/18 00:46:55;;;;;;;16.23;13.48;;;;;;;;;;5064539;28;20027;-75
2023/09/18 00:49:21;;;;;;;17.13;15.50;;;;;;;;;;5065328;28;20767;-77
2023/09/18 00:51:47;;;;;;;17.30;15.50;;;;;;;;;;5063513;28;20093;-76
2023/09/18 00:54:15;;;;;;;16.40;14.75;;;;;;;;;;5065394;28;20378;-76
2023/09/18 00:56:40;;;;;;;16.50;14.55;;;;;;;;;;5066806;28;20062;-76
2023/09/18 00:59:06;;;;;;;17.90;15.55;;;;;;;;;;5064884;28;20021;-76
2023/09/18 01:01:31;;;;;;;17.83;15.55;;;;;;;;;;5064398;28;20071;-75
2023/09/18 01:03:57;;;;;;;18.48;16.48;;;;;;;;;;5064811;28;20039;-76
2023/09/18 01:06:25;;;;;;;16.92;14.98;;;;;;;;;;5064519;28;20020;-76
2023/09/18 01:08:53;;;;;;;18.77;15.35;;;;;;;;;;5064064;28;20115;-76
2023/09/18 01:11:37;;;;;;;17.60;15.73;;;;;;;;;;5064965;28;20028;-77
2023/09/18 01:14:20;;;;;;;19.13;17.15;;;;;;;;;;5064906;28;20033;-75
2023/09/18 01:16:56;;;;;;;19.85;16.70;;;;;;;;;;5053815;28;20035;-74
2023/09/18 01:19:36;;;;;;;18.17;16.27;;;;;;;;;;5064956;28;20056;-74
2023/09/18 01:22:01;;;;;;;18.50;16.50;;;;;;;;;;5063321;28;20382;-74
2023/09/18 01:24:27;;;;;;;19.15;17.23;;;;;;;;;;5063754;28;20017;-75
2023/09/18 01:26:52;;;;;;;20.42;18.27;;;;;;;;;;5053268;28;20063;-77
2023/09/18 01:29:19;;;;;;;21.50;17.13;;;;;;;;;;5063640;28;20105;-75
2023/09/18 01:31:47;;;;;;;19.92;17.95;;;;;;;;;;5065544;28;20764;-74
2023/09/18 01:34:12;;;;;;;21.80;17.58;;;;;;;;;;5064860;28;20021;-77
2023/09/18 01:36:38;;;;;;;18.52;16.67;;;;;;;;;;5066168;28;20463;-76
2023/09/18 01:39:03;;;;;;;17.60;15.80;;;;;;;;;;5053087;28;20032;-75
2023/09/18 01:41:29;;;;;;;17.98;16.20;;;;;;;;;;5063515;28;20671;-75
2023/09/18 01:43:55;;;;;;;17.83;16.05;;;;;;;;;;5063121;28;20032;-77
2023/09/18 01:46:20;;;;;;;18.38;16.40;;;;;;;;;;5064069;28;20028;-77
2023/09/18 01:48:47;;;;;;;19.02;17.13;;;;;;;;;;5063032;28;20494;-76
2023/09/18 01:51:13;;;;;;;18.85;16.88;;;;;;;;;;5064280;28;20023;-77
2023/09/18 01:53:39;;;;;;;17.20;15.32;;;;;;;;;;5064423;28;20024;-76
2023/09/18 01:56:04;;;;;;;18.75;15.38;;;;;;;;;;5063898;28;20043;-76
2023/09/18 01:58:29;;;;;;;18.48;16.58;;;;;;;;;;5063243;28;20043;-75
2023/09/18 02:00:55;;;;;;;18.55;16.08;;;;;;;;;;5063429;28;20221;-76
2023/09/18 02:03:21;;;;;;;19.52;17.73;;;;;;;;;;5063471;28;20108;-76
2023/09/18 02:05:46;;;;;;;18.75;16.92;;;;;;;;;;5053226;28;20324;-76
2023/09/18 02:08:11;;;;;;;17.33;15.65;;;;;;;;;;5061768;28;20540;-77
2023/09/18 02:10:37;;;;;;;18.10;16.08;;;;;;;;;;5058021;28;20656;-75
2023/09/18 02:13:03;;;;;;;17.35;15.65;;;;;;;;;;5055201;28;20032;-77
2023/09/18 02:15:31;;;;;;;18.80;15.60;;;;;;;;;;5061618;28;20402;-75
2023/09/18 02:17:56;;;;;;;17.50;14.65;;;;;;;;;;5061571;28;20028;-75
2023/09/18 02:20:21;;;;;;;17.33;15.10;;;;;;;;;;5057145;28;21009;-76
2023/09/18 02:22:47;;;;;;;18.13;15.20;;;;;;;;;;5057983;28;20032;-76
2023/09/18 02:25:12;;;;;;;16.27;13.68;;;;;;;;;;5063221;28;20108;-75
2023/09/18 02:27:38;;;;;;;19.92;14.90;;;;;;;;;;5063631;28;20114;-74
2023/09/18 02:30:03;;;;;;;15.43;13.93;;;;;;;;;;5063464;28;20017;-76
2023/09/18 02:32:29;;;;;;;16.90;15.20;;;;;;;;;;5064265;28;20480;-77
2023/09/18 02:34:55;;;;;;;16.83;14.45;;;;;;;;;;5061591;28;20031;-74
2023/09/18 02:37:20;;;;;;;16.38;14.55;;;;;;;;;;5063485;28;20466;-77
2023/09/18 02:39:45;;;;;;;14.27;12.93;;;;;;;;;;5063200;28;20459;-76
2023/09/18 02:42:11;;;;;;;16.05;14.35;;;;;;;;;;5063862;28;20061;-75
2023/09/18 02:44:36;;;;;;;16.27;14.55;;;;;;;;;;5063515;28;20020;-75
2023/09/18 02:47:02;;;;;;;16.02;14.18;;;;;;;;;;5063667;28;20024;-76
2023/09/18 02:49:29;;;;;;;15.88;14.10;;;;;;;;;;5084547;27;20110;-74
2023/09/18 02:51:55;;;;;;;14.77;13.15;;;;;;;;;;5061752;28;20363;-75
2023/09/18 02:54:20;;;;;;;16.48;14.75;;;;;;;;;;5051712;28;20024;-74
2023/09/18 02:56:45;;;;;;;19.77;14.00;;;;;;;;;;5062308;28;20724;-77
2023/09/18 02:59:11;;;;;;;15.77;13.85;;;;;;;;;;5063005;28;20067;-77
2023/09/18 03:01:36;;;;;;;16.83;15.23;;;;;;;;;;5062978;28;20064;-78
2023/09/18 03:04:01;;;;;;;17.08;15.45;;;;;;;;;;5063214;28;20021;-77
2023/09/18 03:06:27;;;;;;;17.85;15.38;;;;;;;;;;5064890;28;20032;-77
2023/09/18 03:08:52;;;;;;;19.73;15.70;;;;;;;;;;5062645;28;20036;-76
2023/09/18 03:11:18;;;;;;;16.27;14.60;;;;;;;;;;5062715;28;20406;-77
2023/09/18 03:13:47;;;;;;;16.55;14.85;;;;;;;;;;5062083;28;20042;-74
2023/09/18 03:16:13;;;;;;;16.65;14.27;;;;;;;;;;5072753;28;20025;-75
2023/09/18 03:18:38;;;;;;;18.05;15.65;;;;;;;;;;5055455;28;20477;-74
2023/09/18 03:21:04;;;;;;;16.25;14.55;;;;;;;;;;5053724;28;20439;-75
2023/09/18 03:23:29;;;;;;;15.80;14.02;;;;;;;;;;5057416;28;20356;-75
2023/09/18 03:25:54;;;;;;;16.80;14.93;;;;;;;;;;5056428;28;20056;-74
2023/09/18 03:28:20;;;;;;;16.92;14.27;;;;;;;;;;5062114;28;20348;-77
2023/09/18 03:30:45;;;;;;;16.30;14.80;;;;;;;;;;5062427;28;20343;-77
2023/09/18 03:33:10;;;;;;;16.92;15.20;;;;;;;;;;5062843;28;20040;-76
2023/09/18 03:35:47;;;;;;;16.42;14.82;;;;;;;;;;5062340;28;20024;-76
2023/09/18 03:38:12;;;;;;;16.48;14.82;;;;;;;;;;5057805;28;20157;-77
2023/09/18 03:40:38;;;;;;;17.73;14.55;;;;;;;;;;5053859;28;20050;-77
2023/09/18 03:43:03;;;;;;;17.83;14.88;;;;;;;;;;5062488;28;20333;-76
2023/09/18 03:45:28;;;;;;;16.75;15.02;;;;;;;;;;5062102;28;20118;-78
2023/09/18 03:47:54;;;;;;;16.05;14.55;;;;;;;;;;5062932;28;20024;-77
2023/09/18 03:50:19;;;;;;;15.43;13.85;;;;;;;;;;5062002;28;20448;-77
2023/09/18 03:52:44;;;;;;;16.67;14.95;;;;;;;;;;5053854;28;20024;-75
2023/09/18 03:55:10;;;;;;;16.50;14.85;;;;;;;;;;5062913;28;20056;-75
2023/09/18 03:57:36;;;;;;;16.98;14.57;;;;;;;;;;5061963;28;20031;-76
2023/09/18 04:00:02;;;;;;;17.52;15.55;;;;;;;;;;5062225;28;20123;-76
2023/09/18 04:02:27;;;;;;;16.27;14.77;;;;;;;;;;5050851;28;20099;-75
2023/09/18 04:04:53;;;;;;;17.25;14.32;;;;;;;;;;5054151;28;20033;-75
2023/09/18 04:07:19;;;;;;;15.70;14.13;;;;;;;;;;5047571;28;20458;-74
2023/09/18 04:09:45;;;;;;;17.67;15.98;;;;;;;;;;5047715;28;20024;-75
2023/09/18 04:12:10;;;;;;;17.17;15.40;;;;;;;;;;5048293;28;20032;-76
2023/09/18 04:14:36;;;;;;;17.50;14.93;;;;;;;;;;5046930;28;20721;-76
2023/09/18 04:17:01;;;;;;;16.30;14.60;;;;;;;;;;5049070;28;20035;-76
2023/09/18 04:19:27;;;;;;;15.75;14.27;;;;;;;;;;5046858;28;20680;-76
2023/09/18 04:21:52;;;;;;;17.70;16.10;;;;;;;;;;5056380;28;20060;-74
2023/09/18 04:24:17;;;;;;;22.35;15.48;;;;;;;;;;5061401;28;20040;-75
2023/09/18 04:26:43;;;;;;;16.13;14.43;;;;;;;;;;5061737;28;20030;-74
2023/09/18 04:29:08;;;;;;;17.80;15.95;;;;;;;;;;5061665;28;20033;-74
2023/09/18 04:31:34;;;;;;;18.38;16.45;;;;;;;;;;5061317;28;20025;-76
2023/09/18 04:33:59;;;;;;;20.10;17.98;;;;;;;;;;5062818;28;20024;-77
2023/09/18 04:36:24;;;;;;;20.77;18.05;;;;;;;;;;5061364;28;20021;-77
2023/09/18 04:38:50;;;;;;;20.88;17.65;;;;;;;;;;5061716;28;20021;-75
2023/09/18 04:41:16;;;;;;;20.15;16.67;;;;;;;;;;5060995;28;20807;-76
2023/09/18 04:43:44;;;;;;;18.05;16.27;;;;;;;;;;5049990;28;20416;-75
2023/09/18 04:46:09;;;;;;;17.20;15.50;;;;;;;;;;5054904;28;20020;-76
2023/09/18 04:48:35;;;;;;;21.88;18.08;;;;;;;;;;5051523;28;20031;-75
2023/09/18 04:51:00;;;;;;;21.70;19.30;;;;;;;;;;5061719;28;20028;-76
2023/09/18 04:53:28;;;;;;;24.02;19.73;;;;;;;;;;5054870;28;20024;-76
2023/09/18 04:55:54;;;;;;;21.55;19.23;;;;;;;;;;5054019;28;20024;-77
2023/09/18 04:58:19;;;;;;;20.48;18.38;;;;;;;;;;5062408;28;20035;-76
2023/09/18 05:00:46;;;;;;;21.13;18.90;;;;;;;;;;5060631;28;20463;-79
2023/09/18 05:03:11;;;;;;;20.90;18.67;;;;;;;;;;5050733;28;20052;-80
2023/09/18 05:05:37;;;;;;;19.75;17.83;;;;;;;;;;5051138;28;20146;-79
2023/09/18 05:08:07;;;;;;;20.98;18.70;;;;;;;;;;5049010;28;20411;-78
2023/09/18 05:10:36;;;;;;;20.52;18.40;;;;;;;;;;5054865;28;20039;-77
2023/09/18 05:13:01;;;;;;;23.95;17.58;;;;;;;;;;5050830;28;20062;-76
2023/09/18 05:15:29;;;;;;;19.58;17.58;;;;;;;;;;5050154;28;20125;-78
2023/09/18 05:17:57;;;;;;;22.13;17.48;;;;;;;;;;5059177;28;20027;-75
2023/09/18 05:20:24;;;;;;;20.30;18.25;;;;;;;;;;5049677;28;20451;-74
2023/09/18 05:22:50;;;;;;;19.55;17.38;;;;;;;;;;5057944;28;20016;-77
2023/09/18 05:25:15;;;;;;;20.38;18.08;;;;;;;;;;5057866;28;20040;-76
2023/09/18 05:27:44;;;;;;;19.55;17.60;;;;;;;;;;5056933;28;20036;-76
2023/09/18 05:30:10;;;;;;;21.15;18.38;;;;;;;;;;5064774;28;20035;-76
2023/09/18 05:32:35;;;;;;;19.92;17.55;;;;;;;;;;5064320;28;20085;-76
2023/09/18 05:35:04;;;;;;;22.55;18.17;;;;;;;;;;5066175;28;20355;-76
2023/09/18 05:37:30;;;;;;;17.90;16.10;;;;;;;;;;5064485;28;20650;-75
2023/09/18 05:39:55;;;;;;;17.73;16.02;;;;;;;;;;5054903;28;20041;-76
2023/09/18 05:42:21;;;;;;;18.35;16.42;;;;;;;;;;5056029;28;20048;-77
2023/09/18 05:44:46;;;;;;;17.65;15.55;;;;;;;;;;5062941;28;20024;-74
2023/09/18 05:47:12;;;;;;;19.88;16.35;;;;;;;;;;5063553;28;20134;-78
2023/09/18 05:49:38;;;;;;;17.27;15.45;;;;;;;;;;5055488;28;20117;-76
2023/09/18 05:52:03;;;;;;;19.33;16.95;;;;;;;;;;5058219;28;20185;-78
2023/09/18 05:54:28;;;;;;;19.05;16.10;;;;;;;;;;5062855;28;20028;-76
2023/09/18 05:56:54;;;;;;;23.95;20.00;;;;;;;;;;5063332;28;20027;-76
2023/09/18 05:59:20;;;;;;;24.60;19.50;;;;;;;;;;5063025;28;20105;-78
2023/09/18 06:01:45;;;;;;;22.63;19.10;;;;;;;;;;5062525;28;20043;-78
2023/09/18 06:04:12;;;;;;;24.88;19.52;;;;;;;;;;5064328;28;20016;-76
2023/09/18 06:06:38;;;;;;;23.90;19.13;;;;;;;;;;5064720;28;20117;-76
2023/09/18 06:09:03;;;;;;;27.95;21.88;;;;;;;;;;5061584;28;20077;-77
2023/09/18 06:11:28;;;;;;;24.70;19.83;;;;;;;;;;5062319;28;20083;-77
2023/09/18 06:13:54;;;;;;;36.38;20.60;;;;;;;;;;5062890;28;20024;-77
2023/09/18 06:16:19;;;;;;;24.15;20.60;;;;;;;;;;5063649;28;20020;-76
2023/09/18 06:18:45;;;;;;;21.08;18.88;;;;;;;;;;5063726;28;20309;-80
2023/09/18 06:21:10;;;;;;;24.55;19.88;;;;;;;;;;5063323;28;20032;-76
2023/09/18 06:23:35;;;;;;;27.73;20.48;;;;;;;;;;5063841;28;20500;-74
2023/09/18 06:26:01;;;;;;;36.45;21.73;;;;;;;;;;5063651;28;20028;-77
2023/09/18 06:28:27;;;;;;;28.63;22.42;;;;;;;;;;5064553;28;20028;-79
2023/09/18 06:30:53;;;;;;;45.13;24.10;;;;;;;;;;5064357;28;20071;-78
2023/09/18 06:33:19;;;;;;;27.75;21.98;;;;;;;;;;5063753;28;20057;-76
2023/09/18 06:35:44;;;;;;;26.55;20.40;;;;;;;;;;5063986;28;20024;-75
2023/09/18 06:38:12;;;;;;;24.40;20.92;;;;;;;;;;5062909;28;20028;-76
2023/09/18 06:40:37;;;;;;;24.30;21.17;;;;;;;;;;5063452;28;20046;-77
2023/09/18 06:43:03;;;;;;;24.02;20.10;;;;;;;;;;5063312;28;20048;-77
2023/09/18 06:45:28;;;;;;;24.83;20.38;;;;;;;;;;5063616;28;20478;-76
2023/09/18 06:47:54;;;;;;;22.48;20.25;;;;;;;;;;5064723;28;20441;-76
2023/09/18 06:50:19;;;;;;;24.75;21.48;;;;;;;;;;5062433;28;20025;-75
2023/09/18 06:52:45;;;;;;;23.90;20.58;;;;;;;;;;5064085;28;20028;-74
2023/09/18 06:55:11;;;;;;;23.35;19.63;;;;;;;;;;5057256;28;20421;-75
2023/09/18 06:57:36;;;;;;;22.40;18.95;;;;;;;;;;5057833;28;20513;-77
2023/09/18 07:00:02;;;;;;;20.63;18.17;;;;;;;;;;5060966;28;20036;-74
2023/09/18 07:02:27;;;;;;;19.58;16.60;;;;;;;;;;5051777;28;20039;-74
2023/09/18 07:04:52;;;;;;;19.70;17.67;;;;;;;;;;5063389;28;20116;-75
2023/09/18 07:07:24;;;;;;;19.80;17.77;;;;;;;;;;5062979;28;20060;-76
2023/09/18 07:09:50;;;;;;;17.65;15.82;;;;;;;;;;5062022;28;20036;-76
2023/09/18 07:12:15;;;;;;;19.02;17.05;;;;;;;;;;5061170;28;20359;-74
2023/09/18 07:14:41;;;;;;;19.23;16.25;;;;;;;;;;5062517;28;20333;-76
2023/09/18 07:17:06;;;;;;;19.40;17.35;;;;;;;;;;5062587;28;20166;-77
2023/09/18 07:19:32;;;;;;;18.30;16.33;;;;;;;;;;5062939;28;20040;-77
2023/09/18 07:21:57;;;;;;;18.23;16.40;;;;;;;;;;5061589;28;20032;-78
2023/09/18 07:24:23;;;;;;;17.88;15.98;;;;;;;;;;5061327;28;20055;-76
2023/09/18 07:26:48;;;;;;;16.55;14.95;;;;;;;;;;5062493;28;20036;-77
2023/09/18 07:29:14;;;;;;;16.98;15.40;;;;;;;;;;5061854;28;20024;-76
2023/09/18 07:31:40;;;;;;;16.77;15.07;;;;;;;;;;5061624;28;20032;-78
2023/09/18 07:34:06;;;;;;;17.15;15.07;;;;;;;;;;5062204;28;20028;-76
2023/09/18 07:36:31;;;;;;;17.08;15.45;;;;;;;;;;5062064;28;20130;-78
2023/09/18 07:38:57;;;;;;;15.27;13.75;;;;;;;;;;5062399;28;20024;-78
2023/09/18 07:41:22;;;;;;;16.35;14.60;;;;;;;;;;5060227;28;20475;-78
2023/09/18 07:43:48;;;;;;;16.90;15.20;;;;;;;;;;5061579;28;20020;-76
2023/09/18 07:46:13;;;;;;;15.45;13.85;;;;;;;;;;5062235;28;20274;-75
2023/09/18 07:48:39;;;;;;;15.80;14.18;;;;;;;;;;5062357;28;20027;-74
2023/09/18 07:51:04;;;;;;;17.80;14.45;;;;;;;;;;5056707;28;20035;-77
2023/09/18 07:53:29;;;;;;;16.50;14.68;;;;;;;;;;5057310;28;20036;-75
2023/09/18 07:55:57;;;;;;;16.15;14.52;;;;;;;;;;5061415;28;20031;-75
2023/09/18 07:58:22;;;;;;;15.63;13.45;;;;;;;;;;5060591;28;20070;-77
2023/09/18 08:00:48;;;;;;;14.48;12.88;;;;;;;;;;5048781;28;20424;-78
2023/09/18 08:03:13;;;;;;;14.20;12.63;;;;;;;;;;5048268;28;20418;-77
2023/09/18 08:05:39;;;;;;;14.95;13.38;;;;;;;;;;5060569;28;20032;-76
2023/09/18 08:08:05;;;;;;;14.88;12.98;;;;;;;;;;5062165;28;20451;-76
2023/09/18 08:10:30;;;;;;;17.25;13.32;;;;;;;;;;5061728;28;20450;-78
2023/09/18 08:12:56;;;;;;;14.75;12.15;;;;;;;;;;5064101;28;20384;-77
2023/09/18 08:15:21;;;;;;;16.50;14.15;;;;;;;;;;5061992;28;20040;-77
2023/09/18 08:17:48;;;;;;;13.60;12.05;;;;;;;;;;5060590;28;20040;-78
2023/09/18 08:20:15;;;;;;;13.65;12.23;;;;;;;;;;5061291;28;20024;-76
2023/09/18 08:22:41;;;;;;;14.35;11.77;;;;;;;;;;5061996;28;20108;-78
2023/09/18 08:25:10;;;;;;;13.35;11.90;;;;;;;;;;5061460;28;20132;-76
2023/09/18 08:27:37;;;;;;;13.43;11.98;;;;;;;;;;5061629;28;20020;-78
2023/09/18 08:30:03;;;;;;;12.68;11.38;;;;;;;;;;5061384;28;20056;-75
2023/09/18 08:32:30;;;;;;;12.90;11.60;;;;;;;;;;5063330;28;20051;-76
2023/09/18 08:34:55;;;;;;;12.45;11.20;;;;;;;;;;5065017;28;20039;-76
2023/09/18 08:37:20;;;;;;;12.00;10.77;;;;;;;;;;5066139;28;20032;-77
2023/09/18 08:39:46;;;;;;;12.25;10.98;;;;;;;;;;5065505;28;20086;-76
2023/09/18 08:42:12;;;;;;;12.50;11.20;;;;;;;;;;5065816;28;20052;-76
2023/09/18 08:44:38;;;;;;;12.85;10.90;;;;;;;;;;5065097;28;20434;-75
2023/09/18 08:47:05;;;;;;;12.93;11.07;;;;;;;;;;5064623;28;20028;-76
2023/09/18 08:49:30;;;;;;;14.05;12.23;;;;;;;;;;5065007;28;20036;-76
2023/09/18 08:51:57;;;;;;;17.63;10.93;;;;;;;;;;5065489;28;20020;-77
2023/09/18 08:54:25;;;;;;;15.52;10.75;;;;;;;;;;5056652;28;20036;-75
2023/09/18 08:56:51;;;;;;;11.47;10.10;;;;;;;;;;5053849;28;20083;-75
2023/09/18 08:59:16;;;;;;;16.90;10.90;;;;;;;;;;5064548;28;20348;-74
2023/09/18 09:01:42;;;;;;;13.57;10.38;;;;;;;;;;5064706;28;20111;-76
2023/09/18 09:04:07;;;;;;;16.70;11.07;;;;;;;;;;5064147;28;20032;-75
2023/09/18 09:06:32;;;;;;;11.38;10.25;;;;;;;;;;5066423;28;20028;-75
2023/09/18 09:08:59;;;;;;;10.90;9.57;;;;;;;;;;5063770;28;20044;-75
2023/09/18 09:11:24;;;;;;;12.00;10.43;;;;;;;;;;5064636;28;20357;-76
2023/09/18 09:14:08;;;;;;;10.98;9.98;;;;;;;;;;5066134;28;20024;-76
2023/09/18 09:16:34;;;;;;;10.30;9.30;;;;;;;;;;5064266;28;20111;-76
2023/09/18 09:19:00;;;;;;;14.10;11.13;;;;;;;;;;5064662;28;20135;-76
2023/09/18 09:21:38;;;;;;;10.63;9.60;;;;;;;;;;5064295;28;20174;-76
2023/09/18 09:24:03;;;;;;;10.77;9.77;;;;;;;;;;5066349;28;20097;-75
2023/09/18 09:26:29;;;;;;;10.85;9.85;;;;;;;;;;5064508;28;20020;-77
2023/09/18 09:28:55;;;;;;;14.52;10.68;;;;;;;;;;5064044;28;20081;-77
2023/09/18 09:31:24;;;;;;;11.93;10.68;;;;;;;;;;5057360;28;20020;-74
2023/09/18 09:33:54;;;;;;;11.95;10.50;;;;;;;;;;5058951;28;20119;-75
2023/09/18 09:36:20;;;;;;;11.95;10.68;;;;;;;;;;5064709;28;20036;-78
2023/09/18 09:38:45;;;;;;;13.07;10.93;;;;;;;;;;5064408;28;20028;-76
2023/09/18 09:41:14;;;;;;;11.00;9.88;;;;;;;;;;5064580;28;20324;-77
2023/09/18 09:43:41;;;;;;;12.30;9.85;;;;;;;;;;5063220;28;20043;-76
2023/09/18 09:46:08;;;;;;;12.20;9.77;;;;;;;;;;5064615;28;20123;-77
2023/09/18 09:48:33;;;;;;;11.35;9.98;;;;;;;;;;5053872;28;20040;-77
2023/09/18 09:51:03;;;;;;;11.80;9.80;;;;;;;;;;5063588;28;20040;-76
2023/09/18 09:53:46;;;;;;;10.75;9.48;;;;;;;;;;5063921;28;20043;-78
2023/09/18 09:56:12;;;;;;;10.88;9.75;;;;;;;;;;5064254;28;20035;-76
2023/09/18 09:58:38;;;;;;;11.27;9.95;;;;;;;;;;5064150;28;20044;-77
2023/09/18 10:01:10;;;;;;;12.93;10.38;;;;;;;;;;5064972;28;20450;-77
2023/09/18 10:03:36;;;;;;;11.23;10.23;;;;;;;;;;5063542;28;20036;-76
2023/09/18 10:06:04;;;;;;;11.00;9.90;;;;;;;;;;5065190;28;20336;-78
2023/09/18 10:08:30;;;;;;;12.90;9.40;;;;;;;;;;5064552;28;20032;-77
2023/09/18 10:10:57;;;;;;;10.45;9.45;;;;;;;;;;5064947;28;20028;-77
2023/09/18 10:13:25;;;;;;;10.60;9.50;;;;;;;;;;5063773;28;20040;-77
2023/09/18 10:15:51;;;;;;;11.25;10.07;;;;;;;;;;5064580;28;20420;-77
2023/09/18 10:18:20;;;;;;;12.05;10.40;;;;;;;;;;5063673;28;20039;-78
2023/09/18 10:20:48;;;;;;;11.88;10.32;;;;;;;;;;5064188;28;20115;-78
2023/09/18 10:23:23;;;;;;;11.15;10.15;;;;;;;;;;5063960;28;20032;-76
2023/09/18 10:25:50;;;;;;;10.30;9.38;;;;;;;;;;5064663;28;20040;-79
2023/09/18 10:28:16;;;;;;;13.20;10.05;;;;;;;;;;5063601;28;20024;-76
2023/09/18 10:30:42;;;;;;;11.02;9.93;;;;;;;;;;5062711;28;20048;-75
2023/09/18 10:33:08;;;;;;;10.73;9.77;;;;;;;;;;5063886;28;20024;-77
2023/09/18 10:35:34;;;;;;;11.40;9.73;;;;;;;;;;5064374;28;20021;-76
2023/09/18 10:38:00;;;;;;;10.43;9.27;;;;;;;;;;5062569;28;20524;-76
2023/09/18 10:40:27;;;;;;;11.05;9.65;;;;;;;;;;5063903;28;20034;-76
2023/09/18 10:42:54;;;;;;;10.70;9.23;;;;;;;;;;5062373;28;20078;-77
2023/09/18 10:45:19;;;;;;;10.82;9.43;;;;;;;;;;5062591;28;20431;-76
2023/09/18 10:47:46;;;;;;;9.75;8.85;;;;;;;;;;5063237;28;20136;-78
2023/09/18 10:50:12;;;;;;;14.85;9.35;;;;;;;;;;5064188;28;20473;-77
2023/09/18 10:52:44;;;;;;;9.35;8.45;;;;;;;;;;5063745;28;20032;-78
2023/09/18 10:55:12;;;;;;;9.80;8.90;;;;;;;;;;5062715;28;20040;-77
2023/09/18 10:57:49;;;;;;;9.27;8.32;;;;;;;;;;5062859;28;20043;-79
2023/09/18 11:00:16;;;;;;;9.73;8.75;;;;;;;;;;5061699;28;20047;-75
2023/09/18 11:02:41;;;;;;;10.82;8.80;;;;;;;;;;5063422;28;20789;-78
2023/09/18 11:05:07;;;;;;;15.15;8.43;;;;;;;;;;5062580;28;20033;-77
2023/09/18 11:07:32;;;;;;;10.30;8.68;;;;;;;;;;5062637;28;20241;-77
2023/09/18 11:09:58;;;;;;;9.65;8.55;;;;;;;;;;5063090;28;20031;-78
2023/09/18 11:12:42;;;;;;;8.82;8.02;;;;;;;;;;5064198;28;20020;-79
2023/09/18 11:15:07;;;;;;;10.65;8.15;;;;;;;;;;5062030;28;20025;-79
2023/09/18 11:17:34;;;;;;;9.25;7.65;;;;;;;;;;5061648;28;20037;-75
2023/09/18 11:20:04;;;;;;;9.18;7.95;;;;;;;;;;5062574;28;20060;-77
2023/09/18 11:22:30;;;;;;;9.32;8.43;;;;;;;;;;5062472;28;20449;-76
2023/09/18 11:25:15;;;;;;;10.73;8.48;;;;;;;;;;5063217;28;20031;-77
2023/09/18 11:28:10;;;;;;;8.88;7.97;;;;;;;;;;5062571;28;20440;-78
2023/09/18 11:30:36;;;;;;;10.05;8.80;;;;;;;;;;5056384;28;20085;-79
2023/09/18 11:33:05;;;;;;;10.60;8.88;;;;;;;;;;5057971;28;20017;-76
2023/09/18 11:35:31;;;;;;;8.75;7.95;;;;;;;;;;5062841;28;20450;-77
2023/09/18 11:38:06;;;;;;;9.57;8.65;;;;;;;;;;5062863;28;20025;-75
2023/09/18 11:40:39;;;;;;;10.45;8.27;;;;;;;;;;5062773;28;20036;-74
2023/09/18 11:43:26;;;;;;;9.13;7.93;;;;;;;;;;5063115;28;20390;-74
2023/09/18 11:45:57;;;;;;;9.55;8.63;;;;;;;;;;5062534;28;20044;-75
2023/09/18 11:48:27;;;;;;;10.40;8.60;;;;;;;;;;5063621;28;20510;-75
2023/09/18 11:50:54;;;;;;;9.13;8.23;;;;;;;;;;5062683;28;20514;-76
2023/09/18 11:53:19;;;;;;;8.38;7.57;;;;;;;;;;5062254;28;20051;-77
2023/09/18 11:55:45;;;;;;;9.70;8.10;;;;;;;;;;5062197;28;20454;-77
2023/09/18 11:58:10;;;;;;;8.93;8.13;;;;;;;;;;5062625;28;20467;-78
2023/09/18 12:00:45;;;;;;;9.07;8.13;;;;;;;;;;5063037;28;20032;-76
2023/09/18 12:03:24;;;;;;;9.15;8.25;;;;;;;;;;5062726;28;20025;-76
2023/09/18 12:05:51;;;;;;;8.38;7.65;;;;;;;;;;5062586;28;20042;-76
2023/09/18 12:08:16;;;;;;;8.50;7.72;;;;;;;;;;5065220;28;20044;-74
2023/09/18 12:10:41;;;;;;;9.30;8.35;;;;;;;;;;5067290;28;20125;-75
2023/09/18 12:13:08;;;;;;;9.73;8.35;;;;;;;;;;5066318;28;20028;-77
2023/09/18 12:15:33;;;;;;;9.10;8.02;;;;;;;;;;5065754;28;20033;-74
2023/09/18 12:18:05;;;;;;;8.98;8.02;;;;;;;;;;5066994;28;20036;-75
2023/09/18 12:20:31;;;;;;;8.75;8.05;;;;;;;;;;5067011;28;20036;-76
2023/09/18 12:22:57;;;;;;;8.85;8.02;;;;;;;;;;5065376;28;20040;-76
2023/09/18 12:25:23;;;;;;;12.73;7.95;;;;;;;;;;5067133;28;20025;-77
2023/09/18 12:27:53;;;;;;;8.65;7.82;;;;;;;;;;5060117;28;20078;-77
2023/09/18 12:30:20;;;;;;;9.98;8.95;;;;;;;;;;5051717;28;20074;-74
2023/09/18 12:32:47;;;;;;;9.43;8.50;;;;;;;;;;5053240;28;20983;-76
2023/09/18 12:35:18;;;;;;;10.40;8.20;;;;;;;;;;5051999;28;20025;-75
2023/09/18 12:37:43;;;;;;;8.90;7.88;;;;;;;;;;5051432;28;20050;-74
2023/09/18 12:40:30;;;;;;;9.73;8.02;;;;;;;;;;5052110;28;20439;-74
2023/09/18 12:42:56;;;;;;;8.88;8.00;;;;;;;;;;5051247;28;20413;-77
2023/09/18 12:45:22;;;;;;;12.82;8.43;;;;;;;;;;5050149;28;24090;-76
2023/09/18 12:47:47;;;;;;;9.60;8.00;;;;;;;;;;5059201;28;20039;-75
2023/09/18 12:50:13;;;;;;;8.55;7.75;;;;;;;;;;5064959;28;20055;-73
2023/09/18 12:52:38;;;;;;;8.50;7.70;;;;;;;;;;5065842;28;20448;-73
2023/09/18 12:55:06;;;;;;;8.73;7.78;;;;;;;;;;5064571;28;20020;-77
2023/09/18 12:57:32;;;;;;;8.65;7.85;;;;;;;;;;5064130;28;20431;-75
2023/09/18 12:59:58;;;;;;;8.85;8.00;;;;;;;;;;5063685;28;20374;-74
2023/09/18 13:02:23;;;;;;;7.85;7.15;;;;;;;;;;5064923;28;20051;-75
2023/09/18 13:04:55;;;;;;;8.70;7.65;;;;;;;;;;5064898;28;20028;-73
2023/09/18 13:07:21;;;;;;;9.55;7.60;;;;;;;;;;5064467;28;20025;-74
2023/09/18 13:10:03;;;;;;;7.93;7.05;;;;;;;;;;5065646;28;20040;-74
2023/09/18 13:12:47;;;;;;;9.82;6.82;;;;;;;;;;5060583;28;20031;-76
2023/09/18 13:15:13;;;;;;;8.50;7.28;;;;;;;;;;5058043;28;20032;-76
2023/09/18 13:17:40;;;;;;;8.63;6.70;;;;;;;;;;5055388;28;20060;-75
2023/09/18 13:20:12;;;;;;;7.15;6.57;;;;;;;;;;5061906;28;20035;-76
2023/09/18 13:22:39;;;;;;;8.10;6.32;;;;;;;;;;5058450;28;20447;-78
2023/09/18 13:25:04;;;;;;;7.47;6.10;;;;;;;;;;5055202;28;20028;-76
2023/09/18 13:27:30;;;;;;;8.38;6.95;;;;;;;;;;5054315;28;20035;-74
2023/09/18 13:29:56;;;;;;;7.45;6.82;;;;;;;;;;5064391;28;20032;-75
2023/09/18 13:32:22;;;;;;;7.10;6.40;;;;;;;;;;5056231;28;20028;-77
2023/09/18 13:34:48;;;;;;;7.40;6.68;;;;;;;;;;5066183;28;20009;-77
2023/09/18 13:37:14;;;;;;;7.20;6.60;;;;;;;;;;5054953;28;20467;-77
2023/09/18 13:39:39;;;;;;;7.03;6.43;;;;;;;;;;5050731;28;20119;-77
2023/09/18 13:42:05;;;;;;;7.88;6.93;;;;;;;;;;5049338;28;20123;-77
2023/09/18 13:44:30;;;;;;;8.23;7.07;;;;;;;;;;5049483;28;20069;-75
2023/09/18 13:46:56;;;;;;;8.20;7.30;;;;;;;;;;5062746;28;20028;-77
2023/09/18 13:49:22;;;;;;;9.18;7.68;;;;;;;;;;5062976;28;20028;-77
2023/09/18 13:51:50;;;;;;;9.75;7.30;;;;;;;;;;5061604;28;20578;-76
2023/09/18 13:54:16;;;;;;;8.30;7.45;;;;;;;;;;5047797;28;20424;-76
2023/09/18 13:56:42;;;;;;;7.90;6.60;;;;;;;;;;5047442;28;20877;-77
2023/09/18 13:59:09;;;;;;;7.35;6.50;;;;;;;;;;5051225;28;20050;-76
2023/09/18 14:01:35;;;;;;;7.45;6.68;;;;;;;;;;5049102;28;20363;-79
2023/09/18 14:04:00;;;;;;;7.75;6.95;;;;;;;;;;5051745;28;20021;-77
2023/09/18 14:06:26;;;;;;;7.70;6.90;;;;;;;;;;5047951;28;20028;-78
2023/09/18 14:08:51;;;;;;;7.15;6.32;;;;;;;;;;5050425;28;20028;-77
2023/09/18 14:11:18;;;;;;;7.78;6.93;;;;;;;;;;5064205;28;20468;-79
2023/09/18 14:13:43;;;;;;;6.72;6.03;;;;;;;;;;5063275;28;20033;-77
2023/09/18 14:16:10;;;;;;;8.57;6.57;;;;;;;;;;5063839;28;20021;-76
2023/09/18 14:18:36;;;;;;;7.47;6.68;;;;;;;;;;5063388;28;20052;-77
2023/09/18 14:21:01;;;;;;;6.72;6.05;;;;;;;;;;5051045;28;20516;-78